Merweborg — PDBM — position and weather

sailwx.info

Track history (hours):
 
Tides and Currents Weather Stations Pressure Air Temp Water Temp Dewpoint Dewpoint Depression Visibility Wind Speed Wind Dir Waves Ship Positions

Merweborg

Last reported at 2018-May-18 04:46 UTC. Time now 2018-May-25 10:42 UTC.
Position N 39°15' W 010°01'.

Length 135 m; draft 7.2 m.

Type: Ship. MMSI: 244860325.

Date/timePositionNaut miles runAvg speedWind from/ knotsBaromVisibWave heightAir tempDewpointWater temp
2018-May-18 04:46N 39°15' W 010°01'310.7
2018-May-18 04:30N 39°12' W 009°60'511.1
2018-May-18 04:00N 39°07' W 009°58'510.5
2018-May-18 03:31N 39°02' W 009°56'611.0
2018-May-18 03:00N 38°57' W 009°54'510.8
2018-May-18 02:31N 38°51' W 009°52'611.3
2018-May-18 02:01N 38°46' W 009°52'611.1
2018-May-18 01:30N 38°40' W 009°52'510.6
2018-May-18 01:00N 38°35' W 009°50'510.7
2018-May-18 00:31N 38°30' W 009°49'510.5
2018-May-18 00:01N 38°25' W 009°47'610.8
2018-May-17 23:30N 38°19' W 009°46'510.9
2018-May-17 23:00N 38°14' W 009°44'511.0
2018-May-17 22:31N 38°09' W 009°43'611.3
2018-May-17 22:00N 38°03' W 009°42'611.1
2018-May-17 21:31N 37°58' W 009°40'611.1
2018-May-17 21:00N 37°52' W 009°38'510.7
2018-May-17 20:31N 37°47' W 009°36'510.8
2018-May-17 20:00N 37°42' W 009°35'610.7
2018-May-17 19:27N 37°36' W 009°33'1411.2
2018-May-17 18:12N 37°23' W 009°28'211.5
2018-May-17 18:01N 37°21' W 009°27'711.3
2018-May-17 17:22N 37°13' W 009°26'19811.4
2018-May-17 00:02N 35°58' W 005°38'113.1
2018-May-16 23:59N 35°58' W 005°37'612.5
2018-May-16 23:30N 35°59' W 005°30'510.9
2018-May-16 23:00N 35°59' W 005°23'510.7
2018-May-16 22:30N 35°55' W 005°19'1 1.6
2018-May-16 22:00N 35°54' W 005°19'0 0.0
2018-May-16 21:30N 35°54' W 005°19'0 0.0
2018-May-16 21:00N 35°54' W 005°19'0 0.0
2018-May-16 20:30N 35°54' W 005°19'0 0.0
2018-May-16 20:00N 35°54' W 005°19'0 0.0
2018-May-16 19:30N 35°54' W 005°19'0 0.0
2018-May-16 19:00N 35°54' W 005°19'0 0.0
2018-May-16 18:30N 35°54' W 005°19'0 0.0
2018-May-16 18:00N 35°54' W 005°19'0 0.0
2018-May-16 17:30N 35°54' W 005°19'0 0.8
2018-May-16 17:00N 35°54' W 005°19'3 5.4
2018-May-16 16:30N 35°56' W 005°17'711.8
2018-May-16 15:56N 35°60' W 005°10'  
2018-May-13 14:54N 37°14' E 012°05'512.6
2018-May-13 14:29N 37°13' E 012°12'612.5
2018-May-13 14:00N 37°10' E 012°19'612.1
2018-May-13 13:30N 37°08' E 012°26'611.9
2018-May-13 13:00N 37°06' E 012°33'612.1
2018-May-13 12:30N 37°04' E 012°40'612.2
2018-May-13 12:00N 37°02' E 012°47'611.9
2018-May-13 11:30N 36°59' E 012°54'612.1
2018-May-13 11:00N 36°57' E 013°01'611.9
2018-May-13 10:30N 36°54' E 013°07'612.2
2018-May-13 10:00N 36°52' E 013°14'612.1
2018-May-13 09:29N 36°50' E 013°22'612.1
2018-May-13 09:00N 36°48' E 013°29'612.2
2018-May-13 08:30N 36°45' E 013°36'1112.2
2018-May-13 07:37N 36°41' E 013°48'212.2
2018-May-13 07:30N 36°41' E 013°50'812.2
2018-May-13 06:49N 36°37' E 013°59'512.3
2018-May-13 06:27N 36°36' E 014°04'612.2
2018-May-13 05:59N 36°34' E 014°11'611.8
2018-May-13 05:30N 36°31' E 014°17'611.4
2018-May-13 05:00N 36°29' E 014°24'611.8
2018-May-13 04:30N 36°27' E 014°31'611.8
2018-May-13 04:00N 36°25' E 014°38'611.4
2018-May-13 03:30N 36°25' E 014°45'510.5
2018-May-13 03:00N 36°24' E 014°51'610.5
2018-May-13 02:23N 36°24' E 014°59'410.6
2018-May-13 02:00N 36°24' E 015°04'1411.5
2018-May-13 00:49N 36°23' E 015°21'412.1
2018-May-13 00:29N 36°23' E 015°26'612.4
2018-May-12 23:58N 36°22' E 015°34'  
Track history (hours):
 
Tides and Currents Weather Stations Pressure Air Temp Water Temp Dewpoint Dewpoint Depression Visibility Wind Speed Wind Dir Waves Ship Positions

Merweborg

Last reported at 2018-May-18 04:46 UTC. Time now 2018-May-25 10:42 UTC.
Position N 39°15' W 010°01'.

Length 135 m; draft 7.2 m.

Type: Ship. MMSI: 244860325.

Date/timePositionNaut miles runAvg speedWind from/ knotsBaromVisibWave heightAir tempDewpointWater temp
2018-May-18 04:46N 39°15' W 010°01'310.7
2018-May-18 04:30N 39°12' W 009°60'511.1
2018-May-18 04:00N 39°07' W 009°58'510.5
2018-May-18 03:31N 39°02' W 009°56'611.0
2018-May-18 03:00N 38°57' W 009°54'510.8
2018-May-18 02:31N 38°51' W 009°52'611.3
2018-May-18 02:01N 38°46' W 009°52'611.1
2018-May-18 01:30N 38°40' W 009°52'510.6
2018-May-18 01:00N 38°35' W 009°50'510.7
2018-May-18 00:31N 38°30' W 009°49'510.5
2018-May-18 00:01N 38°25' W 009°47'610.8
2018-May-17 23:30N 38°19' W 009°46'510.9
2018-May-17 23:00N 38°14' W 009°44'511.0
2018-May-17 22:31N 38°09' W 009°43'611.3
2018-May-17 22:00N 38°03' W 009°42'611.1
2018-May-17 21:31N 37°58' W 009°40'611.1
2018-May-17 21:00N 37°52' W 009°38'510.7
2018-May-17 20:31N 37°47' W 009°36'510.8
2018-May-17 20:00N 37°42' W 009°35'610.7
2018-May-17 19:27N 37°36' W 009°33'1411.2
2018-May-17 18:12N 37°23' W 009°28'211.5
2018-May-17 18:01N 37°21' W 009°27'711.3
2018-May-17 17:22N 37°13' W 009°26'19811.4
2018-May-17 00:02N 35°58' W 005°38'113.1
2018-May-16 23:59N 35°58' W 005°37'612.5
2018-May-16 23:30N 35°59' W 005°30'510.9
2018-May-16 23:00N 35°59' W 005°23'510.7
2018-May-16 22:30N 35°55' W 005°19'1 1.6
2018-May-16 22:00N 35°54' W 005°19'0 0.0
2018-May-16 21:30N 35°54' W 005°19'0 0.0
2018-May-16 21:00N 35°54' W 005°19'0 0.0
2018-May-16 20:30N 35°54' W 005°19'0 0.0
2018-May-16 20:00N 35°54' W 005°19'0 0.0
2018-May-16 19:30N 35°54' W 005°19'0 0.0
2018-May-16 19:00N 35°54' W 005°19'0 0.0
2018-May-16 18:30N 35°54' W 005°19'0 0.0
2018-May-16 18:00N 35°54' W 005°19'0 0.0
2018-May-16 17:30N 35°54' W 005°19'0 0.8
2018-May-16 17:00N 35°54' W 005°19'3 5.4
2018-May-16 16:30N 35°56' W 005°17'711.8
2018-May-16 15:56N 35°60' W 005°10'  
2018-May-13 14:54N 37°14' E 012°05'512.6
2018-May-13 14:29N 37°13' E 012°12'612.5
2018-May-13 14:00N 37°10' E 012°19'612.1
2018-May-13 13:30N 37°08' E 012°26'611.9
2018-May-13 13:00N 37°06' E 012°33'612.1
2018-May-13 12:30N 37°04' E 012°40'612.2
2018-May-13 12:00N 37°02' E 012°47'611.9
2018-May-13 11:30N 36°59' E 012°54'612.1
2018-May-13 11:00N 36°57' E 013°01'611.9
2018-May-13 10:30N 36°54' E 013°07'612.2
2018-May-13 10:00N 36°52' E 013°14'612.1
2018-May-13 09:29N 36°50' E 013°22'612.1
2018-May-13 09:00N 36°48' E 013°29'612.2
2018-May-13 08:30N 36°45' E 013°36'1112.2
2018-May-13 07:37N 36°41' E 013°48'212.2
2018-May-13 07:30N 36°41' E 013°50'812.2
2018-May-13 06:49N 36°37' E 013°59'512.3
2018-May-13 06:27N 36°36' E 014°04'612.2
2018-May-13 05:59N 36°34' E 014°11'611.8
2018-May-13 05:30N 36°31' E 014°17'611.4
2018-May-13 05:00N 36°29' E 014°24'611.8
2018-May-13 04:30N 36°27' E 014°31'611.8
2018-May-13 04:00N 36°25' E 014°38'611.4
2018-May-13 03:30N 36°25' E 014°45'510.5
2018-May-13 03:00N 36°24' E 014°51'610.5
2018-May-13 02:23N 36°24' E 014°59'410.6
2018-May-13 02:00N 36°24' E 015°04'1411.5
2018-May-13 00:49N 36°23' E 015°21'412.1
2018-May-13 00:29N 36°23' E 015°26'612.4
2018-May-12 23:58N 36°22' E 015°34'  

Dump ship's entire track history